createdAt,value
2022-10-01T00:01:03.499Z,3.78
2022-10-01T00:03:31.910Z,6.78
2022-10-01T00:06:04.796Z,3.72
2022-10-01T00:08:33.036Z,3.88
2022-10-01T00:11:01.764Z,3.55
2022-10-01T00:13:30.480Z,4.53
2022-10-01T00:15:59.423Z,3.80
2022-10-01T00:18:26.164Z,4.13
2022-10-01T00:20:52.885Z,3.75
2022-10-01T00:23:19.855Z,4.15
2022-10-01T00:25:46.600Z,3.88
2022-10-01T00:28:13.365Z,3.63
2022-10-01T00:30:47.200Z,3.70
2022-10-01T00:33:13.936Z,3.72
2022-10-01T00:35:40.631Z,5.63
2022-10-01T00:38:09.732Z,3.60
2022-10-01T00:40:36.442Z,3.60
2022-10-01T00:43:20.242Z,4.60
2022-10-01T00:45:47.143Z,4.28
2022-10-01T00:48:13.943Z,3.90
2022-10-01T00:50:40.861Z,6.30
2022-10-01T00:53:12.165Z,4.15
2022-10-01T00:55:43.731Z,3.78
2022-10-01T00:58:13.197Z,3.90
2022-10-01T01:00:41.553Z,6.25
2022-10-01T01:03:09.457Z,4.25
2022-10-01T01:05:36.763Z,3.45
2022-10-01T01:08:04.287Z,3.88
2022-10-01T01:10:37.910Z,3.60
2022-10-01T01:13:31.106Z,4.63
2022-10-01T01:16:11.789Z,3.92
2022-10-01T01:18:43.491Z,3.87
2022-10-01T01:21:24.800Z,3.63
2022-10-01T01:24:15.111Z,4.40
2022-10-01T01:26:54.743Z,5.78
2022-10-01T01:29:32.984Z,6.40
2022-10-01T01:32:12.606Z,3.43
2022-10-01T01:34:44.950Z,4.20
2022-10-01T01:37:15.658Z,4.20
2022-10-01T01:39:46.279Z,4.43
2022-10-01T01:42:37.237Z,4.20
2022-10-01T01:45:09.770Z,4.20
2022-10-01T01:47:39.854Z,7.27
2022-10-01T01:50:08.196Z,4.70
2022-10-01T01:52:35.513Z,4.28
2022-10-01T01:55:07.394Z,5.75
2022-10-01T01:57:39.145Z,4.40
2022-10-01T02:00:06.353Z,4.00
2022-10-01T02:02:36.379Z,4.87
2022-10-01T02:05:11.361Z,4.65
2022-10-01T02:07:46.729Z,4.30
2022-10-01T02:10:27.743Z,4.75
2022-10-01T02:13:25.733Z,5.95
2022-10-01T02:16:27.662Z,4.03
2022-10-01T02:19:03.323Z,4.03
2022-10-01T02:21:47.342Z,3.83
2022-10-01T02:24:26.279Z,3.83
2022-10-01T02:26:55.505Z,3.72
2022-10-01T02:29:24.338Z,4.03
2022-10-01T02:31:55.650Z,3.53
2022-10-01T02:34:29.208Z,3.75
2022-10-01T02:36:58.885Z,3.75
2022-10-01T02:39:29.234Z,3.30
2022-10-01T02:41:58.839Z,3.80
2022-10-01T02:44:38.015Z,3.30
2022-10-01T02:47:23.083Z,3.83
2022-10-01T02:49:51.479Z,3.63
2022-10-01T02:52:42.278Z,3.10
2022-10-01T02:55:09.015Z,3.40
2022-10-01T02:57:36.725Z,3.42
2022-10-01T03:00:12.613Z,4.20
2022-10-01T03:02:39.750Z,3.10
2022-10-01T03:05:07.363Z,2.75
2022-10-01T03:07:35.668Z,3.00
2022-10-01T03:10:05.699Z,2.75
2022-10-01T03:12:33.057Z,3.55
2022-10-01T03:14:59.718Z,3.72
2022-10-01T03:17:26.687Z,3.70
2022-10-01T03:19:53.383Z,3.70
2022-10-01T03:22:24.051Z,4.43
2022-10-01T03:24:53.892Z,2.58
2022-10-01T03:27:21.922Z,2.90
2022-10-01T03:29:49.095Z,2.72
2022-10-01T03:32:16.428Z,3.42
2022-10-01T03:34:43.391Z,3.23
2022-10-01T03:37:10.373Z,2.75
2022-10-01T03:39:37.262Z,4.32
2022-10-01T03:42:05.862Z,4.18
2022-10-01T03:44:33.735Z,2.70
2022-10-01T03:47:00.777Z,2.78
2022-10-01T03:49:28.193Z,3.03
2022-10-01T03:51:55.102Z,2.80
2022-10-01T03:54:22.212Z,3.67
2022-10-01T03:56:49.160Z,2.83
2022-10-01T03:59:15.930Z,2.40
2022-10-01T04:01:42.717Z,3.05
2022-10-01T04:04:09.556Z,3.22
2022-10-01T04:06:36.570Z,2.70
2022-10-01T04:09:03.890Z,2.50
2022-10-01T04:11:30.663Z,2.30
2022-10-01T04:13:58.070Z,2.42
2022-10-01T04:16:25.367Z,2.10
2022-10-01T04:18:52.191Z,2.17
2022-10-01T04:21:19.177Z,1.95
2022-10-01T04:23:45.929Z,2.78
2022-10-01T04:26:12.828Z,2.25
2022-10-01T04:28:39.572Z,1.95
2022-10-01T04:31:24.751Z,2.17
2022-10-01T04:33:56.637Z,2.10
2022-10-01T04:36:24.805Z,2.10
2022-10-01T04:38:55.699Z,1.98
2022-10-01T04:41:26.050Z,1.92
2022-10-01T04:43:52.852Z,2.67
2022-10-01T04:46:20.778Z,2.63
2022-10-01T04:48:49.330Z,2.38
2022-10-01T04:51:16.853Z,3.58
2022-10-01T04:53:43.763Z,2.30
2022-10-01T04:56:10.577Z,3.10
2022-10-01T04:58:37.888Z,2.22
2022-10-01T05:01:05.016Z,2.17
2022-10-01T05:03:31.783Z,2.10
2022-10-01T05:05:58.525Z,2.40
2022-10-01T05:08:25.430Z,2.17
2022-10-01T05:10:53.108Z,2.65
2022-10-01T05:13:19.756Z,2.95
2022-10-01T05:15:49.174Z,3.70
2022-10-01T05:18:15.941Z,2.92
2022-10-01T05:20:42.873Z,2.33
2022-10-01T05:23:09.534Z,2.45
2022-10-01T05:25:36.245Z,2.25
2022-10-01T05:28:05.473Z,2.58
2022-10-01T05:30:33.413Z,2.83
2022-10-01T05:33:02.224Z,3.13
2022-10-01T05:35:29.777Z,4.18
2022-10-01T05:38:01.678Z,2.63
2022-10-01T05:40:29.752Z,6.25
2022-10-01T05:42:58.338Z,2.58
2022-10-01T05:45:27.486Z,2.03
2022-10-01T05:48:02.441Z,3.90
2022-10-01T05:50:31.683Z,2.65
2022-10-01T05:52:59.496Z,2.13
2022-10-01T05:55:27.014Z,2.20
2022-10-01T05:57:58.695Z,2.13
2022-10-01T06:00:29.076Z,2.63
2022-10-01T06:02:59.990Z,2.38
2022-10-01T06:05:27.890Z,2.35
2022-10-01T06:07:54.719Z,2.60
2022-10-01T06:10:22.428Z,2.50
2022-10-01T06:12:49.695Z,4.60
2022-10-01T06:15:17.467Z,2.13
2022-10-01T06:17:47.261Z,3.33
2022-10-01T06:20:16.890Z,2.28
2022-10-01T06:22:44.714Z,2.83
2022-10-01T06:25:12.694Z,2.60
2022-10-01T06:27:40.572Z,2.03
2022-10-01T06:30:08.158Z,1.70
2022-10-01T06:32:35.287Z,1.98
2022-10-01T06:35:02.831Z,2.40
2022-10-01T06:37:29.819Z,2.70
2022-10-01T06:39:56.570Z,1.70
2022-10-01T06:42:23.555Z,2.15
2022-10-01T06:44:50.232Z,2.20
2022-10-01T06:47:16.924Z,2.35
2022-10-01T06:49:47.517Z,2.13
2022-10-01T06:52:33.199Z,1.90
2022-10-01T06:55:01.374Z,1.90
2022-10-01T06:57:29.060Z,1.98
2022-10-01T06:59:55.833Z,2.35
2022-10-01T07:02:28.048Z,2.35
2022-10-01T07:04:59.063Z,2.35
2022-10-01T07:07:35.269Z,1.88
2022-10-01T07:10:04.259Z,1.92
2022-10-01T07:12:31.081Z,2.25
2022-10-01T07:14:57.779Z,1.63
2022-10-01T07:17:24.694Z,2.65
2022-10-01T07:19:51.415Z,3.90
2022-10-01T07:22:19.475Z,2.08
2022-10-01T07:24:46.970Z,2.70
2022-10-01T07:27:14.414Z,2.95
2022-10-01T07:29:41.951Z,2.08
2022-10-01T07:32:10.387Z,1.85
2022-10-01T07:34:42.549Z,1.85
2022-10-01T07:37:10.052Z,2.15
2022-10-01T07:39:37.309Z,1.70
2022-10-01T07:42:04.726Z,1.80
2022-10-01T07:44:31.459Z,3.22
2022-10-01T07:46:58.203Z,2.35
2022-10-01T07:49:25.317Z,1.92
2022-10-01T07:51:54.405Z,1.90
2022-10-01T07:54:22.339Z,2.15
2022-10-01T07:56:52.781Z,3.03
2022-10-01T07:59:19.608Z,3.50
2022-10-01T08:01:52.483Z,2.05
2022-10-01T08:04:38.994Z,2.55
2022-10-01T08:07:07.490Z,1.80
2022-10-01T08:09:35.076Z,1.77
2022-10-01T08:12:03.025Z,5.78
2022-10-01T08:14:30.443Z,2.00
2022-10-01T08:16:57.697Z,1.90
2022-10-01T08:19:26.235Z,2.42
2022-10-01T08:21:53.266Z,2.30
2022-10-01T08:24:20.177Z,2.35
2022-10-01T08:26:53.021Z,2.10
2022-10-01T08:29:20.399Z,2.75
2022-10-01T08:31:47.321Z,2.20
2022-10-01T08:34:14.834Z,4.20
2022-10-01T08:36:41.545Z,2.78
2022-10-01T08:39:08.658Z,2.35
2022-10-01T08:42:02.234Z,2.30
2022-10-01T08:44:43.776Z,2.63
2022-10-01T08:47:49.909Z,2.20
2022-10-01T08:50:32.242Z,2.67
2022-10-01T08:53:04.488Z,3.85
2022-10-01T08:55:36.509Z,3.17
2022-10-01T08:58:10.898Z,2.05
2022-10-01T09:00:41.971Z,1.83
2022-10-01T09:03:13.127Z,2.30
2022-10-01T09:06:06.937Z,2.88
2022-10-01T09:09:00.385Z,2.00
2022-10-01T09:12:05.573Z,1.77
2022-10-01T09:14:39.229Z,2.63
2022-10-01T09:17:21.223Z,2.03
2022-10-01T09:20:12.153Z,2.78
2022-10-01T09:22:45.667Z,2.03
2022-10-01T09:25:21.464Z,2.88
2022-10-01T09:27:48.490Z,2.38
2022-10-01T09:30:22.475Z,2.00
2022-10-01T09:32:55.574Z,1.52
2022-10-01T09:35:47.201Z,1.90
2022-10-01T09:38:38.537Z,2.38
2022-10-01T09:41:06.102Z,1.65
2022-10-01T09:43:36.799Z,3.15
2022-10-01T09:46:13.037Z,1.92
2022-10-01T09:48:52.173Z,1.83
2022-10-01T09:51:39.400Z,1.77
2022-10-01T09:54:13.114Z,1.80
2022-10-01T09:57:05.021Z,1.67
2022-10-01T09:59:53.119Z,1.88
2022-10-01T10:02:25.361Z,2.17
2022-10-01T10:05:06.339Z,2.25
2022-10-01T10:07:34.987Z,2.35
2022-10-01T10:10:25.354Z,2.10
2022-10-01T10:12:59.539Z,3.50
2022-10-01T10:15:26.822Z,2.40
2022-10-01T10:17:55.723Z,3.30
2022-10-01T10:20:40.375Z,2.08
2022-10-01T10:23:08.139Z,4.00
2022-10-01T10:25:35.049Z,2.90
2022-10-01T10:28:02.485Z,1.45
2022-10-01T10:30:29.868Z,1.77
2022-10-01T10:33:05.085Z,1.65
2022-10-01T10:35:31.918Z,1.60
2022-10-01T10:37:59.310Z,2.78
2022-10-01T10:40:29.936Z,1.60
2022-10-01T10:42:58.933Z,1.60
2022-10-01T10:45:35.567Z,2.25
2022-10-01T10:48:05.969Z,2.17
2022-10-01T10:50:37.071Z,1.67
2022-10-01T10:53:22.379Z,1.85
2022-10-01T10:56:04.381Z,2.42
2022-10-01T10:58:42.456Z,1.88
2022-10-01T11:01:13.857Z,2.22
2022-10-01T11:03:55.347Z,1.73
2022-10-01T11:06:22.538Z,4.22
2022-10-01T11:08:58.207Z,2.30
2022-10-01T11:11:32.441Z,1.80
2022-10-01T11:14:23.939Z,2.60
2022-10-01T11:17:10.826Z,2.78
2022-10-01T11:19:57.254Z,2.33
2022-10-01T11:22:23.975Z,2.17
2022-10-01T11:25:14.884Z,3.80
2022-10-01T11:27:54.277Z,1.60
2022-10-01T11:30:24.948Z,1.27
2022-10-01T11:33:15.473Z,0.80
2022-10-01T11:36:00.192Z,1.38
2022-10-01T11:39:09.589Z,1.00
2022-10-01T11:41:46.671Z,1.52
2022-10-01T11:44:22.194Z,1.50
2022-10-01T11:47:24.186Z,0.95
2022-10-01T11:49:59.828Z,0.75
2022-10-01T11:52:46.324Z,0.93
2022-10-01T11:55:49.270Z,1.25
2022-10-01T11:58:50.867Z,1.33
2022-10-01T12:01:46.270Z,0.90
2022-10-01T12:04:37.544Z,0.90
2022-10-01T12:07:38.740Z,1.42
2022-10-01T12:10:23.486Z,1.23
2022-10-01T12:13:03.213Z,1.30
2022-10-01T12:15:43.556Z,1.30
2022-10-01T12:18:21.643Z,1.00
2022-10-01T12:20:52.381Z,0.73
2022-10-01T12:23:42.154Z,0.90
2022-10-01T12:26:27.385Z,0.73
2022-10-01T12:29:00.445Z,0.63
2022-10-01T12:31:53.638Z,0.60
2022-10-01T12:34:22.430Z,2.40
2022-10-01T12:37:17.230Z,0.60
2022-10-01T12:40:08.778Z,0.60
2022-10-01T12:43:07.603Z,0.45
2022-10-01T12:45:58.589Z,0.55
2022-10-01T12:48:31.243Z,0.73
2022-10-01T12:51:22.117Z,0.40
2022-10-01T12:54:17.512Z,0.68
2022-10-01T12:56:54.366Z,0.40
2022-10-01T12:59:30.063Z,0.40
2022-10-01T13:02:16.009Z,0.57
2022-10-01T13:04:50.630Z,0.50
2022-10-01T13:07:28.292Z,0.70
2022-10-01T13:10:15.383Z,0.60
2022-10-01T13:13:04.308Z,1.05
2022-10-01T13:15:37.983Z,1.42
2022-10-01T13:18:32.952Z,0.50
2022-10-01T13:21:40.133Z,0.90
2022-10-01T13:24:37.928Z,0.65
2022-10-01T13:27:12.082Z,0.88
2022-10-01T13:29:59.987Z,0.85
2022-10-01T13:32:33.189Z,0.85
2022-10-01T13:35:21.929Z,0.68
2022-10-01T13:37:48.663Z,0.70
2022-10-01T13:48:24.946Z,1.23
2022-10-01T13:51:02.860Z,3.45
2022-10-01T13:53:38.359Z,0.35
2022-10-01T13:56:05.594Z,0.75
2022-10-01T13:58:41.595Z,0.70
2022-10-01T14:01:23.644Z,0.65
2022-10-01T14:04:21.265Z,1.13
2022-10-01T14:07:18.123Z,1.55
2022-10-01T14:09:50.538Z,1.42
2022-10-01T14:12:51.623Z,1.63
2022-10-01T14:15:58.719Z,0.90
2022-10-01T14:18:33.232Z,0.55
2022-10-01T14:21:38.680Z,0.70
2022-10-01T14:24:27.137Z,0.88
2022-10-01T14:27:38.760Z,0.47
2022-10-01T14:30:18.629Z,0.63
2022-10-01T14:33:18.191Z,0.98
2022-10-01T14:36:00.703Z,0.32
2022-10-01T14:38:28.057Z,0.88
2022-10-01T14:40:55.175Z,0.52
2022-10-01T14:43:27.891Z,1.88
2022-10-01T14:46:03.832Z,0.50
2022-10-01T14:48:32.996Z,0.60
2022-10-01T14:51:02.560Z,1.13
2022-10-01T14:53:32.274Z,0.70
2022-10-01T14:56:08.110Z,2.50
2022-10-01T14:58:58.153Z,1.23
2022-10-01T15:01:25.918Z,0.80
2022-10-01T15:03:53.319Z,0.82
2022-10-01T15:06:29.875Z,0.80
2022-10-01T15:09:12.439Z,0.77
2022-10-01T15:11:44.262Z,0.70
2022-10-01T15:14:18.259Z,0.88
2022-10-01T15:16:45.197Z,0.60
2022-10-01T15:19:23.001Z,0.77
2022-10-01T15:21:54.594Z,0.60
2022-10-01T15:24:39.025Z,2.20
2022-10-01T15:27:07.194Z,0.80
2022-10-01T15:29:34.433Z,1.10
2022-10-01T15:32:03.299Z,1.05
2022-10-01T15:34:31.119Z,1.08
2022-10-01T15:37:02.107Z,2.13
2022-10-01T15:39:38.652Z,1.15
2022-10-01T15:42:20.449Z,1.13
2022-10-01T15:44:49.272Z,0.98
2022-10-01T15:47:24.911Z,1.90
2022-10-01T15:50:18.870Z,0.82
2022-10-01T15:52:54.475Z,1.88
2022-10-01T15:55:24.182Z,1.15
2022-10-01T15:58:02.642Z,0.65
2022-10-01T16:00:33.532Z,1.25
2022-10-01T16:03:02.126Z,0.85
2022-10-01T16:05:36.839Z,2.35
2022-10-01T16:08:03.818Z,1.25
2022-10-01T16:10:40.849Z,1.65
2022-10-01T16:13:38.230Z,0.82
2022-10-01T16:16:07.963Z,2.42
2022-10-01T16:18:37.339Z,1.25
2022-10-01T16:21:06.469Z,1.85
2022-10-01T16:23:43.780Z,0.93
2022-10-01T16:26:33.323Z,3.22
2022-10-01T16:29:02.548Z,1.45
2022-10-01T16:31:30.637Z,1.33
2022-10-01T16:33:57.523Z,2.10
2022-10-01T16:36:26.217Z,1.33
2022-10-01T16:38:53.403Z,2.40
2022-10-01T16:41:24.333Z,1.45
2022-10-01T16:43:53.140Z,1.20
2022-10-01T16:46:19.899Z,1.45
2022-10-01T16:48:51.517Z,1.38
2022-10-01T16:51:19.589Z,1.60
2022-10-01T16:53:47.007Z,2.15
2022-10-01T16:56:14.395Z,1.67
2022-10-01T16:58:43.100Z,1.85
2022-10-01T17:01:13.909Z,1.70
2022-10-01T17:03:41.168Z,3.17
2022-10-01T17:06:07.930Z,1.48
2022-10-01T17:08:34.695Z,1.27
2022-10-01T17:11:02.700Z,1.08
2022-10-01T17:13:32.798Z,1.23
2022-10-01T17:16:00.066Z,1.10
2022-10-01T17:18:27.076Z,0.90
2022-10-01T17:20:53.900Z,1.40
2022-10-01T17:23:22.285Z,1.17
2022-10-01T17:25:49.540Z,1.38
2022-10-01T17:28:18.899Z,1.98
2022-10-01T17:30:47.986Z,1.45
2022-10-01T17:33:16.949Z,1.83
2022-10-01T17:35:45.533Z,1.42
2022-10-01T17:38:12.704Z,1.30
2022-10-01T17:40:41.377Z,1.40
2022-10-01T17:43:10.691Z,1.77
2022-10-01T17:45:37.605Z,1.27
2022-10-01T17:48:04.489Z,2.88
2022-10-01T17:50:31.434Z,1.20
2022-10-01T17:52:59.490Z,1.70
2022-10-01T17:55:26.770Z,2.17
2022-10-01T17:57:54.003Z,1.42
2022-10-01T18:00:20.738Z,1.20
2022-10-01T18:02:47.573Z,1.20
2022-10-01T18:05:15.166Z,3.22
2022-10-01T18:07:42.625Z,2.22
2022-10-01T18:10:12.804Z,1.98
2022-10-01T18:12:40.130Z,1.70
2022-10-01T18:15:07.459Z,1.55
2022-10-01T18:17:36.605Z,2.00
2022-10-01T18:20:07.837Z,5.50
2022-10-01T18:22:38.297Z,3.05
2022-10-01T18:25:06.988Z,1.70
2022-10-01T18:27:33.891Z,1.65
2022-10-01T18:30:00.665Z,1.67
2022-10-01T18:32:35.523Z,2.33
2022-10-01T18:35:05.667Z,1.77
2022-10-01T18:37:44.029Z,1.80
2022-10-01T18:40:24.945Z,2.92
2022-10-01T18:42:57.890Z,1.90
2022-10-01T18:45:37.144Z,1.50
2022-10-01T18:48:22.756Z,2.35
2022-10-01T18:51:51.162Z,3.60
2022-10-01T18:54:37.543Z,2.83
2022-10-01T18:57:22.128Z,3.22
2022-10-01T19:00:08.752Z,2.75
2022-10-01T19:02:53.416Z,3.08
2022-10-01T19:05:32.091Z,3.28
2022-10-01T19:08:26.226Z,3.20
2022-10-01T19:11:22.574Z,3.63
2022-10-01T19:14:11.269Z,2.88
2022-10-01T19:16:49.806Z,3.33
2022-10-01T19:19:42.927Z,2.95
2022-10-01T19:22:30.562Z,3.25
2022-10-01T19:25:36.122Z,3.38
2022-10-01T19:28:36.561Z,9.18
2022-10-01T19:31:27.901Z,7.00
2022-10-01T19:34:06.292Z,6.60
2022-10-01T19:36:40.393Z,3.10
2022-10-01T19:39:16.191Z,3.88
2022-10-01T19:41:49.270Z,2.63
2022-10-01T19:44:29.547Z,5.47
2022-10-01T19:47:05.161Z,3.40
2022-10-01T19:49:35.978Z,3.30
2022-10-01T19:52:12.342Z,2.30
2022-10-01T19:54:48.877Z,1.67
2022-10-01T19:57:25.909Z,3.10
2022-10-01T19:59:58.544Z,1.73
2022-10-01T20:02:45.907Z,2.53
2022-10-01T20:05:37.174Z,1.50
2022-10-01T20:08:16.173Z,2.33
2022-10-01T20:10:49.264Z,2.15
2022-10-01T20:13:56.498Z,2.40
2022-10-01T20:16:47.937Z,1.58
2022-10-01T20:19:32.334Z,0.90
2022-10-01T20:22:51.031Z,1.70
2022-10-01T20:25:25.679Z,2.33
2022-10-01T20:27:55.166Z,1.60
2022-10-01T20:30:22.841Z,1.48
2022-10-01T20:32:58.322Z,1.50
2022-10-01T20:36:00.395Z,1.38
2022-10-01T20:38:54.904Z,1.35
2022-10-01T20:41:24.689Z,1.67
2022-10-01T20:43:58.673Z,3.17
2022-10-01T20:46:43.403Z,1.92
2022-10-01T20:49:34.553Z,1.48
2022-10-01T20:52:26.886Z,3.50
2022-10-01T20:55:14.470Z,1.20
2022-10-01T20:57:45.188Z,1.00
2022-10-01T21:00:24.344Z,1.48
2022-10-01T21:03:16.152Z,2.45
2022-10-01T21:05:48.058Z,1.30
2022-10-01T21:08:37.376Z,2.78
2022-10-01T21:11:17.791Z,1.52
2022-10-01T21:14:03.605Z,1.85
2022-10-01T21:17:00.872Z,1.20
2022-10-01T21:19:40.210Z,1.42
2022-10-01T21:22:07.568Z,2.47
2022-10-01T21:24:56.644Z,2.05
2022-10-01T21:27:58.325Z,1.90
2022-10-01T21:30:36.492Z,2.47
2022-10-01T21:33:21.287Z,1.85
2022-10-01T21:36:03.203Z,2.03
2022-10-01T21:38:34.625Z,2.70
2022-10-01T21:41:11.733Z,3.50
2022-10-01T21:43:56.658Z,1.48
2022-10-01T21:46:42.697Z,0.80
2022-10-01T21:49:13.259Z,1.45
2022-10-01T21:51:56.679Z,2.17
2022-10-01T21:54:42.352Z,1.48
2022-10-01T21:57:24.124Z,2.30
2022-10-01T22:00:11.101Z,1.02
2022-10-01T22:02:45.260Z,1.85
2022-10-01T22:05:24.621Z,1.75
2022-10-01T22:08:15.104Z,1.70
2022-10-01T22:10:46.960Z,2.22
2022-10-01T22:13:20.819Z,1.08
2022-10-01T22:15:52.462Z,2.03
2022-10-01T22:18:36.932Z,1.77
2022-10-01T22:21:10.542Z,2.00
2022-10-01T22:23:46.589Z,2.25
2022-10-01T22:26:18.497Z,2.17
2022-10-01T22:28:49.927Z,1.75
2022-10-01T22:31:27.765Z,1.05
2022-10-01T22:34:11.021Z,1.40
2022-10-01T22:36:46.801Z,2.28
2022-10-01T22:39:44.065Z,2.08
2022-10-01T22:42:16.173Z,2.90
2022-10-01T22:44:43.602Z,1.65
2022-10-01T22:47:27.841Z,2.03
2022-10-01T22:50:16.119Z,2.47
2022-10-01T22:53:19.415Z,2.22
2022-10-01T22:55:54.681Z,1.95
2022-10-01T22:58:42.278Z,1.73
2022-10-01T23:01:56.597Z,2.60
2022-10-01T23:04:36.210Z,5.68
2022-10-01T23:07:15.781Z,2.95
2022-10-01T23:10:40.735Z,1.63
2022-10-01T23:13:26.509Z,3.13
2022-10-01T23:16:04.998Z,3.20
2022-10-01T23:19:25.445Z,1.63
2022-10-01T23:22:11.749Z,4.63
2022-10-01T23:24:45.377Z,1.98
2022-10-01T23:27:43.910Z,4.07
2022-10-01T23:30:14.575Z,1.85
2022-10-01T23:32:54.840Z,3.13
2022-10-01T23:35:26.711Z,2.70
2022-10-01T23:38:31.875Z,3.97
2022-10-01T23:41:03.936Z,3.08
2022-10-01T23:43:44.028Z,1.83
2022-10-01T23:46:18.638Z,1.52
2022-10-01T23:48:50.571Z,2.60
2022-10-01T23:51:29.297Z,4.43
2022-10-01T23:54:44.137Z,1.95
2022-10-01T23:57:31.747Z,4.70
